Long Eaton, United Kingdom
Current Conditions -  °F | °C
As of 12:50 AM on Tuesday 25 Nov 2014 (Local Time) from EGNX Reporting Station
Light Fog Light Fog  
Wind Chill: 30°   Ceiling: Unl
Heat Index: 34°   Visibility: 4mi
Dew Point: 32°   Wind: 5mph
Humidity: 93%   Direction: 180°S
Pressure: 30.3"   Gusts: NA
Location:  52.9°N, 1.27°W
Report Text: EGNX 250050Z 18004KT 6000 PRFG NSC 01/00 Q1026
Loading
Personal Weather Stations






























Interactive Weather Map New forecast layout! Learn more

10-Day Weather Forecast

Advertisements
Track Severe Weather on mobile